createdAt,value
2022-10-13T00:00:50.949Z,7.38
2022-10-13T00:03:18.009Z,6.00
2022-10-13T00:05:48.124Z,5.28
2022-10-13T00:08:19.910Z,8.25
2022-10-13T00:10:48.837Z,4.45
2022-10-13T00:13:16.535Z,8.32
2022-10-13T00:15:46.264Z,4.65
2022-10-13T00:18:13.508Z,5.18
2022-10-13T00:20:49.163Z,4.10
2022-10-13T00:23:16.682Z,7.22
2022-10-13T00:25:45.777Z,4.18
2022-10-13T00:28:13.693Z,5.18
2022-10-13T00:30:41.307Z,6.95
2022-10-13T00:33:08.542Z,7.80
2022-10-13T00:35:41.241Z,10.27
2022-10-13T00:38:08.322Z,5.60
2022-10-13T00:40:42.662Z,6.00
2022-10-13T00:43:48.505Z,5.13
2022-10-13T00:46:16.306Z,5.18
2022-10-13T00:48:44.555Z,7.53
2022-10-13T00:51:14.875Z,3.53
2022-10-13T00:53:44.208Z,5.90
2022-10-13T00:56:14.197Z,10.20
2022-10-13T00:58:41.682Z,4.13
2022-10-13T01:01:08.849Z,8.55
2022-10-13T01:03:36.659Z,5.30
2022-10-13T01:06:05.933Z,4.85
2022-10-13T01:08:33.806Z,5.68
2022-10-13T01:11:36.384Z,6.68
2022-10-13T01:14:27.002Z,5.67
2022-10-13T01:16:56.709Z,4.22
2022-10-13T01:19:52.455Z,4.72
2022-10-13T01:22:37.255Z,7.25
2022-10-13T01:25:17.781Z,5.05
2022-10-13T01:28:02.671Z,7.22
2022-10-13T01:30:36.590Z,4.65
2022-10-13T01:33:12.357Z,5.68
2022-10-13T01:35:42.071Z,4.55
2022-10-13T01:38:33.696Z,3.47
2022-10-13T01:41:33.944Z,6.85
2022-10-13T01:44:16.517Z,4.03
2022-10-13T01:46:46.030Z,5.53
2022-10-13T01:49:16.738Z,6.88
2022-10-13T01:51:45.718Z,5.32
2022-10-13T01:54:12.500Z,5.85
2022-10-13T01:56:39.256Z,4.68
2022-10-13T01:59:15.079Z,3.88
2022-10-13T02:02:15.657Z,5.38
2022-10-13T02:05:03.242Z,4.88
2022-10-13T02:07:49.739Z,4.03
2022-10-13T02:10:34.583Z,5.65
2022-10-13T02:13:06.233Z,6.50
2022-10-13T02:15:42.714Z,10.95
2022-10-13T02:18:13.146Z,4.03
2022-10-13T02:20:42.473Z,6.40
2022-10-13T02:23:13.030Z,9.10
2022-10-13T02:25:40.920Z,7.40
2022-10-13T02:28:09.462Z,5.95
2022-10-13T02:30:39.571Z,5.80
2022-10-13T02:33:06.720Z,4.60
2022-10-13T02:35:34.413Z,7.00
2022-10-13T02:38:01.232Z,5.43
2022-10-13T02:40:28.795Z,7.82
2022-10-13T02:42:55.582Z,7.43
2022-10-13T02:45:22.599Z,9.25
2022-10-13T02:47:49.474Z,8.32
2022-10-13T02:50:16.303Z,8.60
2022-10-13T02:52:43.065Z,8.57
2022-10-13T02:55:10.225Z,8.38
2022-10-13T02:57:37.100Z,12.38
2022-10-13T03:00:05.935Z,7.03
2022-10-13T03:02:32.958Z,6.13
2022-10-13T03:04:59.773Z,9.75
2022-10-13T03:07:26.511Z,8.60
2022-10-13T03:09:53.314Z,5.55
2022-10-13T03:12:20.277Z,9.68
2022-10-13T03:14:47.139Z,8.60
2022-10-13T03:17:14.035Z,8.25
2022-10-13T03:19:40.926Z,8.98
2022-10-13T03:22:07.727Z,8.30
2022-10-13T03:24:34.459Z,7.97
2022-10-13T03:27:01.238Z,8.85
2022-10-13T03:29:28.049Z,9.38
2022-10-13T03:31:54.777Z,10.02
2022-10-13T03:34:21.522Z,9.93
2022-10-13T03:36:48.216Z,9.82
2022-10-13T03:39:15.155Z,7.15
2022-10-13T03:41:42.245Z,8.57
2022-10-13T03:44:12.673Z,11.95
2022-10-13T03:46:40.078Z,8.50
2022-10-13T03:49:11.542Z,11.85
2022-10-13T03:51:38.902Z,12.43
2022-10-13T03:54:05.742Z,11.45
2022-10-13T03:56:32.507Z,10.02
2022-10-13T03:59:07.562Z,9.65
2022-10-13T04:01:34.430Z,10.57
2022-10-13T04:04:02.951Z,10.20
2022-10-13T04:06:31.244Z,11.80
2022-10-13T04:09:06.613Z,11.07
2022-10-13T04:11:33.758Z,11.52
2022-10-13T04:14:00.572Z,10.48
2022-10-13T04:16:29.734Z,9.38
2022-10-13T04:19:11.895Z,14.30
2022-10-13T04:21:39.401Z,11.30
2022-10-13T04:24:12.301Z,11.23
2022-10-13T04:29:13.289Z,9.05
2022-10-13T04:31:42.877Z,13.63
2022-10-13T04:34:10.388Z,13.65
2022-10-13T04:36:37.256Z,14.55
2022-10-13T04:39:07.358Z,14.43
2022-10-13T04:41:34.148Z,12.85
2022-10-13T04:44:02.698Z,11.73
2022-10-13T04:46:30.010Z,13.93
2022-10-13T04:48:57.479Z,11.20
2022-10-13T04:51:25.976Z,14.07
2022-10-13T04:54:01.277Z,13.23
2022-10-13T04:56:28.963Z,13.30
2022-10-13T04:58:55.704Z,14.27
2022-10-13T05:01:24.536Z,13.00
2022-10-13T05:04:02.274Z,14.70
2022-10-13T05:06:53.390Z,14.75
2022-10-13T05:09:24.593Z,13.68
2022-10-13T05:11:51.342Z,10.68
2022-10-13T05:14:18.108Z,17.13
2022-10-13T05:16:44.889Z,16.75
2022-10-13T05:19:11.658Z,13.75
2022-10-13T05:21:39.289Z,18.48
2022-10-13T05:24:06.693Z,12.93
2022-10-13T05:26:35.920Z,12.60
2022-10-13T05:29:13.083Z,14.57
2022-10-13T05:31:40.488Z,17.67
2022-10-13T05:34:07.211Z,18.70
2022-10-13T05:36:35.321Z,13.23
2022-10-13T05:39:08.562Z,16.08
2022-10-13T05:41:35.334Z,16.92
2022-10-13T05:44:04.669Z,19.75
2022-10-13T05:46:31.583Z,14.77
2022-10-13T05:48:59.015Z,17.38
2022-10-13T05:51:36.956Z,17.98
2022-10-13T05:54:11.470Z,18.98
2022-10-13T05:56:42.347Z,15.18
2022-10-13T05:59:17.117Z,19.10
2022-10-13T06:01:44.420Z,18.25
2022-10-13T06:04:23.868Z,15.27
2022-10-13T06:06:50.908Z,19.73
2022-10-13T06:09:18.393Z,17.92
2022-10-13T06:11:45.248Z,18.30
2022-10-13T06:14:12.039Z,18.58
2022-10-13T06:16:38.923Z,19.02
2022-10-13T06:19:12.306Z,20.30
2022-10-13T06:21:39.133Z,20.92
2022-10-13T06:24:06.079Z,19.85
2022-10-13T06:26:32.982Z,20.83
2022-10-13T06:29:08.089Z,20.70
2022-10-13T06:31:34.870Z,19.23
2022-10-13T06:34:01.688Z,18.08
2022-10-13T06:36:28.478Z,19.08
2022-10-13T06:38:55.418Z,21.30
2022-10-13T06:41:22.253Z,16.20
2022-10-13T06:43:49.057Z,24.65
2022-10-13T06:46:15.860Z,20.20
2022-10-13T06:48:43.201Z,24.58
2022-10-13T06:51:11.816Z,18.15
2022-10-13T06:53:38.831Z,18.85
2022-10-13T06:56:07.826Z,19.80
2022-10-13T06:58:36.002Z,18.52
2022-10-13T07:01:02.822Z,16.67
2022-10-13T07:03:29.907Z,19.02
2022-10-13T07:06:04.518Z,20.95
2022-10-13T07:08:32.774Z,20.58
2022-10-13T07:10:59.617Z,23.95
2022-10-13T07:13:26.451Z,21.90
2022-10-13T07:15:53.259Z,22.38
2022-10-13T07:18:20.171Z,21.42
2022-10-13T07:20:47.154Z,18.65
2022-10-13T07:23:13.918Z,25.23
2022-10-13T07:25:40.946Z,25.05
2022-10-13T07:28:07.715Z,22.70
2022-10-13T07:30:34.492Z,19.05
2022-10-13T07:33:01.508Z,19.65
2022-10-13T07:35:30.627Z,19.98
2022-10-13T07:37:57.881Z,20.27
2022-10-13T07:40:24.773Z,22.75
2022-10-13T07:42:51.536Z,22.48
2022-10-13T07:45:18.506Z,21.33
2022-10-13T07:47:45.266Z,21.70
2022-10-13T07:50:12.097Z,18.33
2022-10-13T07:52:39.343Z,21.25
2022-10-13T07:55:06.920Z,22.00
2022-10-13T07:57:33.713Z,20.63
2022-10-13T08:00:00.751Z,22.13
2022-10-13T08:02:27.577Z,24.52
2022-10-13T08:04:54.416Z,19.50
2022-10-13T08:07:21.385Z,20.58
2022-10-13T08:09:48.375Z,24.70
2022-10-13T08:12:15.327Z,19.40
2022-10-13T08:14:42.612Z,21.10
2022-10-13T08:17:09.659Z,18.15
2022-10-13T08:19:36.489Z,22.67
2022-10-13T08:22:05.543Z,20.05
2022-10-13T08:24:35.958Z,18.88
2022-10-13T08:27:02.727Z,19.45
2022-10-13T08:29:29.645Z,19.15
2022-10-13T08:31:56.659Z,16.25
2022-10-13T08:34:25.013Z,17.45
2022-10-13T08:36:54.781Z,20.05
2022-10-13T08:39:22.775Z,20.80
2022-10-13T08:41:50.195Z,17.05
2022-10-13T08:47:42.014Z,16.95
2022-10-13T08:50:25.313Z,20.17
2022-10-13T08:52:58.113Z,16.38
2022-10-13T08:58:15.197Z,15.85
2022-10-13T09:00:42.646Z,19.70
2022-10-13T09:03:23.126Z,17.75
2022-10-13T09:06:00.666Z,19.15
2022-10-13T09:08:34.381Z,20.02
2022-10-13T09:11:03.085Z,23.00
2022-10-13T09:13:29.930Z,18.92
2022-10-13T09:15:58.314Z,17.42
2022-10-13T09:18:31.908Z,20.00
2022-10-13T09:21:19.631Z,17.65
2022-10-13T09:23:46.822Z,21.90
2022-10-13T09:26:38.017Z,24.33
2022-10-13T09:29:11.401Z,19.90
2022-10-13T09:31:38.664Z,19.52
2022-10-13T09:34:20.535Z,17.15
2022-10-13T09:37:02.241Z,18.45
2022-10-13T09:39:30.834Z,18.20
2022-10-13T09:42:22.001Z,22.33
2022-10-13T09:45:14.783Z,16.75
2022-10-13T09:47:49.007Z,17.10
2022-10-13T09:50:22.463Z,17.98
2022-10-13T09:52:49.551Z,19.60
2022-10-13T09:55:32.618Z,15.10
2022-10-13T09:58:06.009Z,17.02
2022-10-13T10:00:33.405Z,18.27
2022-10-13T10:03:15.895Z,16.67
2022-10-13T10:05:51.465Z,16.67
2022-10-13T10:09:05.256Z,19.25
2022-10-13T10:11:41.094Z,17.75
2022-10-13T10:14:26.605Z,20.08
2022-10-13T10:17:02.614Z,18.73
2022-10-13T10:19:35.335Z,18.65
2022-10-13T10:22:17.160Z,19.45
2022-10-13T10:25:01.526Z,20.90
2022-10-13T10:27:28.293Z,16.50
2022-10-13T10:30:02.631Z,16.42
2022-10-13T10:32:53.320Z,18.52
2022-10-13T10:35:32.287Z,19.27
2022-10-13T10:38:14.873Z,20.48
2022-10-13T10:41:06.265Z,18.48
2022-10-13T10:43:48.668Z,17.23
2022-10-13T10:46:23.328Z,22.00
2022-10-13T10:48:55.405Z,17.63
2022-10-13T10:51:28.407Z,18.88
2022-10-13T10:54:10.204Z,21.15
2022-10-13T10:56:44.876Z,19.48
2022-10-13T10:59:26.624Z,18.15
2022-10-13T11:02:08.738Z,20.45
2022-10-13T11:04:47.658Z,21.73
2022-10-13T11:07:23.547Z,21.27
2022-10-13T11:09:53.177Z,16.35
2022-10-13T11:12:20.218Z,19.60
2022-10-13T11:14:47.170Z,19.80
2022-10-13T11:17:34.374Z,18.40
2022-10-13T11:20:01.132Z,15.80
2022-10-13T11:22:31.834Z,13.68
2022-10-13T11:25:22.103Z,14.25
2022-10-13T11:27:48.907Z,18.88
2022-10-13T11:30:52.256Z,20.55
2022-10-13T11:33:38.728Z,21.88
2022-10-13T11:36:42.930Z,21.52
2022-10-13T11:39:28.402Z,17.25
2022-10-13T11:42:21.526Z,22.95
2022-10-13T11:45:18.817Z,17.25
2022-10-13T11:48:11.456Z,17.52
2022-10-13T11:50:55.686Z,20.75
2022-10-13T11:53:33.134Z,19.15
2022-10-13T11:56:03.759Z,15.75
2022-10-13T11:58:32.450Z,17.83
2022-10-13T12:01:13.100Z,14.80
2022-10-13T12:03:43.647Z,15.30
2022-10-13T12:06:35.780Z,11.48
2022-10-13T12:09:21.714Z,12.63
2022-10-13T12:12:00.220Z,11.82
2022-10-13T12:17:31.273Z,13.75
2022-10-13T12:22:29.484Z,10.93
2022-10-13T12:25:00.590Z,11.65
2022-10-13T12:27:32.667Z,10.60
2022-10-13T12:30:03.113Z,13.63
2022-10-13T12:32:32.425Z,9.13
2022-10-13T12:35:20.401Z,8.82
2022-10-13T12:37:48.248Z,9.90
2022-10-13T12:40:25.682Z,8.55
2022-10-13T12:42:52.816Z,11.30
2022-10-13T12:45:22.887Z,8.32
2022-10-13T12:47:54.650Z,11.55
2022-10-13T12:50:30.523Z,13.27
2022-10-13T12:53:06.067Z,9.57
2022-10-13T12:55:33.517Z,10.18
2022-10-13T12:58:00.630Z,7.30
2022-10-13T13:00:35.493Z,7.32
2022-10-13T13:03:05.344Z,7.93
2022-10-13T13:05:35.197Z,9.98
2022-10-13T13:08:04.130Z,10.65
2022-10-13T13:10:31.480Z,11.77
2022-10-13T13:13:14.489Z,9.80
2022-10-13T13:18:29.322Z,10.38
2022-10-13T13:20:56.497Z,8.23
2022-10-13T13:23:23.898Z,6.07
2022-10-13T13:26:13.910Z,9.23
2022-10-13T13:28:54.336Z,7.88
2022-10-13T13:31:23.368Z,7.97
2022-10-13T13:33:50.311Z,9.05
2022-10-13T13:36:21.629Z,6.88
2022-10-13T13:38:49.096Z,5.57
2022-10-13T13:41:17.171Z,6.55
2022-10-13T13:43:44.044Z,6.30
2022-10-13T13:46:23.566Z,6.10
2022-10-13T13:48:51.038Z,12.68
2022-10-13T13:51:18.223Z,8.30
2022-10-13T13:53:45.204Z,11.07
2022-10-13T13:56:20.493Z,7.20
2022-10-13T13:58:47.626Z,9.07
2022-10-13T14:01:14.782Z,9.55
2022-10-13T14:03:42.172Z,10.48
2022-10-13T14:06:09.391Z,8.63
2022-10-13T14:08:42.590Z,7.85
2022-10-13T14:11:10.283Z,8.15
2022-10-13T14:13:37.174Z,7.88
2022-10-13T14:16:04.578Z,11.10
2022-10-13T14:18:32.051Z,6.03
2022-10-13T14:20:59.099Z,7.53
2022-10-13T14:23:25.929Z,8.93
2022-10-13T14:25:52.668Z,9.95
2022-10-13T14:28:19.480Z,7.93
2022-10-13T14:30:46.299Z,7.10
2022-10-13T14:33:13.083Z,9.02
2022-10-13T14:35:39.834Z,6.63
2022-10-13T14:38:06.608Z,8.73
2022-10-13T14:40:33.347Z,5.03
2022-10-13T14:43:00.071Z,9.30
2022-10-13T14:45:26.836Z,5.43
2022-10-13T14:47:53.885Z,7.70
2022-10-13T14:50:20.742Z,9.63
2022-10-13T14:52:47.466Z,7.40
2022-10-13T14:55:14.317Z,7.50
2022-10-13T14:57:41.038Z,5.50
2022-10-13T15:00:08.462Z,4.95
2022-10-13T15:02:35.200Z,8.75
2022-10-13T15:05:01.990Z,5.28
2022-10-13T15:07:28.774Z,7.43
2022-10-13T15:10:10.716Z,6.65
2022-10-13T15:12:37.621Z,5.05
2022-10-13T15:15:05.064Z,5.45
2022-10-13T15:17:33.413Z,8.52
2022-10-13T15:20:00.710Z,3.35
2022-10-13T15:22:27.571Z,6.82
2022-10-13T15:24:54.335Z,7.55
2022-10-13T15:27:21.186Z,6.18
2022-10-13T15:29:47.934Z,6.82
2022-10-13T15:32:18.597Z,5.38
2022-10-13T15:34:46.166Z,5.93
2022-10-13T15:37:13.482Z,7.38
2022-10-13T15:39:40.381Z,4.70
2022-10-13T15:42:07.207Z,5.93
2022-10-13T15:44:51.305Z,6.95
2022-10-13T15:47:20.767Z,8.15
2022-10-13T15:49:47.495Z,4.97
2022-10-13T15:52:14.248Z,3.55
2022-10-13T15:54:41.123Z,4.28
2022-10-13T15:57:08.167Z,7.63
2022-10-13T15:59:35.017Z,4.20
2022-10-13T16:02:01.732Z,3.40
2022-10-13T16:04:29.759Z,3.00
2022-10-13T16:06:59.381Z,2.78
2022-10-13T16:09:26.197Z,3.08
2022-10-13T16:11:54.438Z,5.05
2022-10-13T16:14:21.414Z,3.55
2022-10-13T16:16:48.162Z,5.90
2022-10-13T16:19:15.270Z,4.15
2022-10-13T16:21:42.249Z,1.48
2022-10-13T16:24:09.036Z,2.35
2022-10-13T16:26:35.789Z,3.50
2022-10-13T16:29:07.021Z,5.38
2022-10-13T16:31:33.756Z,4.13
2022-10-13T16:34:00.586Z,2.63
2022-10-13T16:36:27.356Z,4.97
2022-10-13T16:38:55.106Z,2.75
2022-10-13T16:41:22.266Z,2.38
2022-10-13T16:43:49.220Z,2.10
2022-10-13T16:46:18.426Z,4.45
2022-10-13T16:48:46.333Z,2.72
2022-10-13T16:51:16.379Z,3.38
2022-10-13T16:53:43.413Z,3.83
2022-10-13T16:56:10.411Z,3.47
2022-10-13T16:58:37.198Z,3.13
2022-10-13T17:01:09.630Z,5.28
2022-10-13T17:03:37.684Z,4.45
2022-10-13T17:06:05.420Z,2.25
2022-10-13T17:08:32.766Z,4.45
2022-10-13T17:11:00.465Z,3.75
2022-10-13T17:13:27.293Z,3.03
2022-10-13T17:15:55.883Z,7.10
2022-10-13T17:18:23.324Z,6.07
2022-10-13T17:21:01.198Z,2.58
2022-10-13T17:23:29.351Z,3.00
2022-10-13T17:26:00.675Z,4.88
2022-10-13T17:28:27.536Z,3.45
2022-10-13T17:31:02.638Z,3.88
2022-10-13T17:33:32.796Z,5.47
2022-10-13T17:36:04.228Z,4.05
2022-10-13T17:38:31.575Z,7.10
2022-10-13T17:41:03.615Z,5.25
2022-10-13T17:43:31.125Z,4.47
2022-10-13T17:46:35.627Z,5.18
2022-10-13T17:49:12.562Z,8.15
2022-10-13T17:51:41.216Z,9.40
2022-10-13T17:54:14.429Z,8.55
2022-10-13T17:56:42.412Z,11.40
2022-10-13T17:59:10.104Z,9.65
2022-10-13T18:01:36.957Z,6.13
2022-10-13T18:04:11.364Z,5.75
2022-10-13T18:06:40.778Z,5.93
2022-10-13T18:09:14.448Z,9.73
2022-10-13T18:11:47.066Z,5.32
2022-10-13T18:14:17.182Z,5.68
2022-10-13T18:16:44.190Z,4.60
2022-10-13T18:19:12.408Z,3.15
2022-10-13T18:21:39.142Z,4.07
2022-10-13T18:24:06.226Z,1.90
2022-10-13T18:26:35.331Z,3.65
2022-10-13T18:29:08.160Z,5.68
2022-10-13T18:34:12.861Z,2.83
2022-10-13T18:36:47.283Z,3.40
2022-10-13T18:39:16.918Z,3.13
2022-10-13T18:41:44.051Z,3.33
2022-10-13T18:44:11.344Z,4.90
2022-10-13T18:46:39.390Z,4.13
2022-10-13T18:49:14.520Z,6.13
2022-10-13T18:51:42.032Z,3.08
2022-10-13T18:54:10.149Z,3.45
2022-10-13T18:56:37.151Z,1.95
2022-10-13T18:59:07.931Z,5.72
2022-10-13T19:01:35.972Z,4.40
2022-10-13T19:04:03.243Z,4.47
2022-10-13T19:06:32.356Z,4.68
2022-10-13T19:09:09.789Z,5.20
2022-10-13T19:11:37.146Z,6.55
2022-10-13T19:14:05.892Z,5.07
2022-10-13T19:16:36.569Z,9.30
2022-10-13T19:19:13.358Z,10.88
2022-10-13T19:21:40.519Z,8.52
2022-10-13T19:24:08.259Z,9.18
2022-10-13T19:26:36.200Z,9.07
2022-10-13T19:29:10.302Z,7.47
2022-10-13T19:31:39.387Z,10.07
2022-10-13T19:34:06.239Z,4.68
2022-10-13T19:36:37.797Z,6.63
2022-10-13T19:39:22.329Z,6.47
2022-10-13T19:41:50.838Z,6.03
2022-10-13T19:44:19.740Z,5.72
2022-10-13T19:46:47.745Z,8.52
2022-10-13T19:49:16.875Z,8.30
2022-10-13T19:51:43.859Z,6.40
2022-10-13T19:54:11.455Z,6.68
2022-10-13T19:56:38.605Z,4.95
2022-10-13T19:59:07.610Z,4.72
2022-10-13T20:01:43.678Z,9.90
2022-10-13T20:04:11.197Z,14.45
2022-10-13T20:06:38.603Z,7.78
2022-10-13T20:09:10.749Z,7.82
2022-10-13T20:11:37.500Z,6.28
2022-10-13T20:14:04.462Z,6.38
2022-10-13T20:16:31.383Z,8.70
2022-10-13T20:19:00.653Z,10.35
2022-10-13T20:21:28.392Z,7.72
2022-10-13T20:23:56.211Z,10.20
2022-10-13T20:26:23.700Z,9.43
2022-10-13T20:28:51.781Z,8.00
2022-10-13T20:31:21.431Z,7.45
2022-10-13T20:33:49.856Z,7.95
2022-10-13T20:36:18.404Z,7.18
2022-10-13T20:38:45.346Z,6.53
2022-10-13T20:41:26.180Z,6.00
2022-10-13T20:43:54.880Z,6.70
2022-10-13T20:46:22.283Z,6.50
2022-10-13T20:51:36.412Z,9.30
2022-10-13T20:54:03.152Z,10.27
2022-10-13T20:56:30.007Z,8.02
2022-10-13T20:59:06.882Z,8.27
2022-10-13T21:01:34.696Z,7.85
2022-10-13T21:04:01.629Z,6.28
2022-10-13T21:06:28.512Z,9.57
2022-10-13T21:08:55.516Z,6.97
2022-10-13T21:11:23.684Z,7.75
2022-10-13T21:13:51.897Z,7.90
2022-10-13T21:16:23.275Z,7.97
2022-10-13T21:18:51.804Z,11.15
2022-10-13T21:21:21.321Z,10.15
2022-10-13T21:23:52.799Z,7.38
2022-10-13T21:26:22.162Z,9.77
2022-10-13T21:28:50.290Z,9.27
2022-10-13T21:31:18.863Z,11.45
2022-10-13T21:33:45.915Z,11.60
2022-10-13T21:36:15.228Z,12.13
2022-10-13T21:38:43.302Z,11.05
2022-10-13T21:41:12.827Z,12.43
2022-10-13T21:43:39.786Z,14.15
2022-10-13T21:46:09.670Z,13.52
2022-10-13T21:48:37.096Z,17.75
2022-10-13T21:51:12.533Z,15.18
2022-10-13T21:53:39.410Z,13.20
2022-10-13T21:56:07.384Z,13.32
2022-10-13T21:58:35.414Z,13.07
2022-10-13T22:01:02.934Z,9.27
2022-10-13T22:03:30.117Z,10.82
2022-10-13T22:05:56.972Z,13.20
2022-10-13T22:08:37.623Z,13.50
2022-10-13T22:11:06.453Z,14.70
2022-10-13T22:13:33.341Z,19.48
2022-10-13T22:16:19.058Z,17.15
2022-10-13T22:18:46.462Z,14.60
2022-10-13T22:21:17.476Z,14.10
2022-10-13T22:23:45.042Z,16.85
2022-10-13T22:26:12.761Z,12.52
2022-10-13T22:28:39.934Z,15.98
2022-10-13T22:31:09.878Z,15.50
2022-10-13T22:33:38.086Z,19.05
2022-10-13T22:36:09.636Z,15.50
2022-10-13T22:38:36.487Z,13.52
2022-10-13T22:41:05.462Z,16.48
2022-10-13T22:43:32.822Z,12.68
2022-10-13T22:45:59.693Z,14.48
2022-10-13T22:48:26.578Z,15.55
2022-10-13T22:50:53.622Z,16.85
2022-10-13T22:53:20.848Z,19.63
2022-10-13T22:55:50.669Z,13.77
2022-10-13T22:58:17.387Z,16.30
2022-10-13T23:00:44.225Z,14.48
2022-10-13T23:03:13.763Z,16.67
2022-10-13T23:05:47.486Z,15.90
2022-10-13T23:08:14.936Z,15.85
2022-10-13T23:10:41.713Z,15.10
2022-10-13T23:13:08.455Z,16.45
2022-10-13T23:15:38.370Z,17.60
2022-10-13T23:18:05.601Z,17.80
2022-10-13T23:20:32.370Z,14.48
2022-10-13T23:22:59.107Z,16.35
2022-10-13T23:25:25.828Z,19.90
2022-10-13T23:27:52.559Z,21.17
2022-10-13T23:30:19.345Z,17.67
2022-10-13T23:32:54.427Z,17.92
2022-10-13T23:35:21.258Z,19.23
2022-10-13T23:37:48.290Z,22.23
2022-10-13T23:40:15.331Z,18.55
2022-10-13T23:42:42.302Z,18.67
2022-10-13T23:45:09.488Z,22.05
2022-10-13T23:47:36.240Z,15.82
2022-10-13T23:50:03.483Z,18.15
2022-10-13T23:52:30.323Z,13.80
2022-10-13T23:54:57.012Z,15.43
2022-10-13T23:57:24.066Z,13.27
2022-10-13T23:59:50.903Z,17.63
